sensor_id;sensor_type;location;lat;lon;timestamp;P1;durP1;ratioP1;P2;durP2;ratioP2
27489;SDS011;14925;51.026;13.752;2023-04-03T00:01:27;7.55;;;1.90;;
27489;SDS011;14925;51.026;13.752;2023-04-03T00:03:53;5.15;;;2.28;;
27489;SDS011;14925;51.026;13.752;2023-04-03T00:06:18;5.03;;;1.63;;
27489;SDS011;14925;51.026;13.752;2023-04-03T00:08:44;6.70;;;2.00;;
27489;SDS011;14925;51.026;13.752;2023-04-03T00:11:09;6.55;;;1.83;;
27489;SDS011;14925;51.026;13.752;2023-04-03T00:13:35;6.40;;;1.98;;
27489;SDS011;14925;51.026;13.752;2023-04-03T00:16:01;7.95;;;1.95;;
27489;SDS011;14925;51.026;13.752;2023-04-03T00:18:28;5.90;;;1.83;;
27489;SDS011;14925;51.026;13.752;2023-04-03T00:20:53;3.80;;;1.63;;
27489;SDS011;14925;51.026;13.752;2023-04-03T00:23:19;5.78;;;2.00;;
27489;SDS011;14925;51.026;13.752;2023-04-03T00:25:44;8.43;;;2.00;;
27489;SDS011;14925;51.026;13.752;2023-04-03T00:28:10;8.38;;;1.92;;
27489;SDS011;14925;51.026;13.752;2023-04-03T00:30:35;3.90;;;1.83;;
27489;SDS011;14925;51.026;13.752;2023-04-03T00:33:01;7.72;;;1.95;;
27489;SDS011;14925;51.026;13.752;2023-04-03T00:35:26;9.13;;;2.08;;
27489;SDS011;14925;51.026;13.752;2023-04-03T00:37:52;9.68;;;2.25;;
27489;SDS011;14925;51.026;13.752;2023-04-03T00:40:18;5.25;;;1.70;;
27489;SDS011;14925;51.026;13.752;2023-04-03T00:42:45;8.90;;;2.45;;
27489;SDS011;14925;51.026;13.752;2023-04-03T00:47:43;5.97;;;2.00;;
27489;SDS011;14925;51.026;13.752;2023-04-03T00:50:08;6.60;;;2.00;;
27489;SDS011;14925;51.026;13.752;2023-04-03T00:52:34;5.95;;;2.08;;
27489;SDS011;14925;51.026;13.752;2023-04-03T00:55:01;7.82;;;2.33;;
27489;SDS011;14925;51.026;13.752;2023-04-03T00:57:28;5.95;;;2.47;;
27489;SDS011;14925;51.026;13.752;2023-04-03T00:59:57;7.93;;;2.10;;
27489;SDS011;14925;51.026;13.752;2023-04-03T01:02:28;7.05;;;2.08;;
27489;SDS011;14925;51.026;13.752;2023-04-03T01:04:53;7.03;;;2.40;;
27489;SDS011;14925;51.026;13.752;2023-04-03T01:07:23;8.38;;;2.10;;
27489;SDS011;14925;51.026;13.752;2023-04-03T01:09:52;6.75;;;2.03;;
27489;SDS011;14925;51.026;13.752;2023-04-03T01:12:21;4.93;;;2.17;;
27489;SDS011;14925;51.026;13.752;2023-04-03T01:14:53;6.03;;;2.00;;
27489;SDS011;14925;51.026;13.752;2023-04-03T01:17:32;6.20;;;2.22;;
27489;SDS011;14925;51.026;13.752;2023-04-03T01:22:34;7.43;;;1.83;;
27489;SDS011;14925;51.026;13.752;2023-04-03T01:25:10;7.82;;;2.28;;
27489;SDS011;14925;51.026;13.752;2023-04-03T01:27:35;6.00;;;2.35;;
27489;SDS011;14925;51.026;13.752;2023-04-03T01:30:01;6.35;;;2.25;;
27489;SDS011;14925;51.026;13.752;2023-04-03T01:32:26;9.77;;;1.95;;
27489;SDS011;14925;51.026;13.752;2023-04-03T01:34:52;4.22;;;1.75;;
27489;SDS011;14925;51.026;13.752;2023-04-03T01:37:17;9.60;;;2.05;;
27489;SDS011;14925;51.026;13.752;2023-04-03T01:39:42;7.82;;;2.05;;
27489;SDS011;14925;51.026;13.752;2023-04-03T01:42:08;7.35;;;2.33;;
27489;SDS011;14925;51.026;13.752;2023-04-03T01:44:33;7.28;;;2.17;;
27489;SDS011;14925;51.026;13.752;2023-04-03T01:46:59;8.25;;;2.63;;
27489;SDS011;14925;51.026;13.752;2023-04-03T01:49:24;7.40;;;1.95;;
27489;SDS011;14925;51.026;13.752;2023-04-03T01:51:50;7.45;;;1.92;;
27489;SDS011;14925;51.026;13.752;2023-04-03T01:54:15;7.38;;;2.33;;
27489;SDS011;14925;51.026;13.752;2023-04-03T01:56:40;9.52;;;2.22;;
27489;SDS011;14925;51.026;13.752;2023-04-03T01:59:06;6.72;;;2.10;;
27489;SDS011;14925;51.026;13.752;2023-04-03T02:01:31;7.22;;;2.33;;
27489;SDS011;14925;51.026;13.752;2023-04-03T02:03:57;7.75;;;2.38;;
27489;SDS011;14925;51.026;13.752;2023-04-03T02:06:22;7.20;;;2.38;;
27489;SDS011;14925;51.026;13.752;2023-04-03T02:08:48;7.15;;;2.17;;
27489;SDS011;14925;51.026;13.752;2023-04-03T02:11:16;9.02;;;2.30;;
27489;SDS011;14925;51.026;13.752;2023-04-03T02:13:41;8.32;;;2.38;;
27489;SDS011;14925;51.026;13.752;2023-04-03T02:16:10;8.95;;;2.58;;
27489;SDS011;14925;51.026;13.752;2023-04-03T02:18:37;10.60;;;2.05;;
27489;SDS011;14925;51.026;13.752;2023-04-03T02:21:03;6.80;;;2.38;;
27489;SDS011;14925;51.026;13.752;2023-04-03T02:23:29;7.43;;;2.00;;
27489;SDS011;14925;51.026;13.752;2023-04-03T02:26:02;9.52;;;2.20;;
27489;SDS011;14925;51.026;13.752;2023-04-03T02:28:28;8.15;;;2.35;;
27489;SDS011;14925;51.026;13.752;2023-04-03T02:30:54;10.90;;;2.15;;
27489;SDS011;14925;51.026;13.752;2023-04-03T02:33:19;8.95;;;1.95;;
27489;SDS011;14925;51.026;13.752;2023-04-03T02:35:45;4.93;;;1.67;;
27489;SDS011;14925;51.026;13.752;2023-04-03T02:38:17;8.63;;;2.00;;
27489;SDS011;14925;51.026;13.752;2023-04-03T02:40:43;7.88;;;2.20;;
27489;SDS011;14925;51.026;13.752;2023-04-03T02:43:08;5.60;;;2.08;;
27489;SDS011;14925;51.026;13.752;2023-04-03T02:45:37;7.20;;;2.03;;
27489;SDS011;14925;51.026;13.752;2023-04-03T02:48:02;7.55;;;2.05;;
27489;SDS011;14925;51.026;13.752;2023-04-03T02:50:27;7.88;;;2.00;;
27489;SDS011;14925;51.026;13.752;2023-04-03T02:52:53;6.43;;;2.13;;
27489;SDS011;14925;51.026;13.752;2023-04-03T02:55:18;7.68;;;2.00;;
27489;SDS011;14925;51.026;13.752;2023-04-03T02:57:43;7.05;;;2.10;;
27489;SDS011;14925;51.026;13.752;2023-04-03T03:00:09;6.97;;;2.38;;
27489;SDS011;14925;51.026;13.752;2023-04-03T03:02:35;9.98;;;2.33;;
27489;SDS011;14925;51.026;13.752;2023-04-03T03:05:00;5.57;;;1.85;;
27489;SDS011;14925;51.026;13.752;2023-04-03T03:07:25;8.00;;;2.53;;
27489;SDS011;14925;51.026;13.752;2023-04-03T03:09:51;11.98;;;2.60;;
27489;SDS011;14925;51.026;13.752;2023-04-03T03:12:16;7.22;;;2.00;;
27489;SDS011;14925;51.026;13.752;2023-04-03T03:14:49;8.45;;;2.33;;
27489;SDS011;14925;51.026;13.752;2023-04-03T03:17:14;12.38;;;2.25;;
27489;SDS011;14925;51.026;13.752;2023-04-03T03:19:40;4.97;;;2.08;;
27489;SDS011;14925;51.026;13.752;2023-04-03T03:22:05;6.35;;;2.35;;
27489;SDS011;14925;51.026;13.752;2023-04-03T03:24:31;7.97;;;2.30;;
27489;SDS011;14925;51.026;13.752;2023-04-03T03:26:56;8.40;;;2.15;;
27489;SDS011;14925;51.026;13.752;2023-04-03T03:29:24;5.93;;;2.08;;
27489;SDS011;14925;51.026;13.752;2023-04-03T03:31:49;6.97;;;2.10;;
27489;SDS011;14925;51.026;13.752;2023-04-03T03:34:17;8.32;;;2.42;;
27489;SDS011;14925;51.026;13.752;2023-04-03T03:36:43;6.40;;;2.20;;
27489;SDS011;14925;51.026;13.752;2023-04-03T03:39:09;9.10;;;2.00;;
27489;SDS011;14925;51.026;13.752;2023-04-03T03:41:35;9.23;;;2.10;;
27489;SDS011;14925;51.026;13.752;2023-04-03T03:44:00;11.20;;;2.50;;
27489;SDS011;14925;51.026;13.752;2023-04-03T03:46:25;8.80;;;1.80;;
27489;SDS011;14925;51.026;13.752;2023-04-03T03:48:51;8.73;;;1.85;;
27489;SDS011;14925;51.026;13.752;2023-04-03T03:51:16;4.75;;;1.73;;
27489;SDS011;14925;51.026;13.752;2023-04-03T03:53:42;11.95;;;2.30;;
27489;SDS011;14925;51.026;13.752;2023-04-03T03:56:10;9.02;;;2.53;;
27489;SDS011;14925;51.026;13.752;2023-04-03T03:58:38;6.00;;;1.95;;
27489;SDS011;14925;51.026;13.752;2023-04-03T04:01:03;9.50;;;2.00;;
27489;SDS011;14925;51.026;13.752;2023-04-03T04:03:30;8.00;;;2.20;;
27489;SDS011;14925;51.026;13.752;2023-04-03T04:05:59;7.15;;;2.10;;
27489;SDS011;14925;51.026;13.752;2023-04-03T04:08:24;10.90;;;2.30;;
27489;SDS011;14925;51.026;13.752;2023-04-03T04:10:49;9.30;;;2.13;;
27489;SDS011;14925;51.026;13.752;2023-04-03T04:13:15;8.05;;;2.47;;
27489;SDS011;14925;51.026;13.752;2023-04-03T04:15:40;8.60;;;2.30;;
27489;SDS011;14925;51.026;13.752;2023-04-03T04:18:07;9.95;;;2.28;;
27489;SDS011;14925;51.026;13.752;2023-04-03T04:20:32;7.47;;;2.33;;
27489;SDS011;14925;51.026;13.752;2023-04-03T04:22:57;7.70;;;2.28;;
27489;SDS011;14925;51.026;13.752;2023-04-03T04:25:23;6.07;;;2.20;;
27489;SDS011;14925;51.026;13.752;2023-04-03T04:27:48;9.77;;;2.40;;
27489;SDS011;14925;51.026;13.752;2023-04-03T04:30:14;7.35;;;2.28;;
27489;SDS011;14925;51.026;13.752;2023-04-03T04:32:39;9.32;;;2.22;;
27489;SDS011;14925;51.026;13.752;2023-04-03T04:35:04;8.05;;;2.20;;
27489;SDS011;14925;51.026;13.752;2023-04-03T04:37:30;10.02;;;2.30;;
27489;SDS011;14925;51.026;13.752;2023-04-03T04:39:56;8.82;;;2.30;;
27489;SDS011;14925;51.026;13.752;2023-04-03T04:42:21;13.32;;;2.60;;
27489;SDS011;14925;51.026;13.752;2023-04-03T04:44:46;8.15;;;2.30;;
27489;SDS011;14925;51.026;13.752;2023-04-03T04:47:12;10.82;;;2.80;;
27489;SDS011;14925;51.026;13.752;2023-04-03T04:49:37;10.25;;;2.47;;
27489;SDS011;14925;51.026;13.752;2023-04-03T04:52:02;9.95;;;2.33;;
27489;SDS011;14925;51.026;13.752;2023-04-03T04:54:28;7.18;;;2.90;;
27489;SDS011;14925;51.026;13.752;2023-04-03T04:56:53;10.15;;;2.60;;
27489;SDS011;14925;51.026;13.752;2023-04-03T04:59:19;9.02;;;2.70;;
27489;SDS011;14925;51.026;13.752;2023-04-03T05:01:44;8.98;;;2.60;;
27489;SDS011;14925;51.026;13.752;2023-04-03T05:04:10;11.27;;;3.28;;
27489;SDS011;14925;51.026;13.752;2023-04-03T05:06:38;7.78;;;2.60;;
27489;SDS011;14925;51.026;13.752;2023-04-03T05:09:03;10.43;;;3.00;;
27489;SDS011;14925;51.026;13.752;2023-04-03T05:11:29;9.90;;;2.60;;
27489;SDS011;14925;51.026;13.752;2023-04-03T05:13:55;9.80;;;2.72;;
27489;SDS011;14925;51.026;13.752;2023-04-03T05:16:20;10.60;;;3.00;;
27489;SDS011;14925;51.026;13.752;2023-04-03T05:18:45;10.85;;;2.70;;
27489;SDS011;14925;51.026;13.752;2023-04-03T05:21:11;13.23;;;3.08;;
27489;SDS011;14925;51.026;13.752;2023-04-03T05:23:36;7.65;;;2.45;;
27489;SDS011;14925;51.026;13.752;2023-04-03T05:26:02;9.18;;;2.50;;
27489;SDS011;14925;51.026;13.752;2023-04-03T05:28:28;7.05;;;2.78;;
27489;SDS011;14925;51.026;13.752;2023-04-03T05:30:54;12.45;;;3.67;;
27489;SDS011;14925;51.026;13.752;2023-04-03T05:33:20;11.00;;;3.13;;
27489;SDS011;14925;51.026;13.752;2023-04-03T05:35:46;12.80;;;3.70;;
27489;SDS011;14925;51.026;13.752;2023-04-03T05:38:11;11.95;;;3.20;;
27489;SDS011;14925;51.026;13.752;2023-04-03T05:40:37;12.02;;;2.88;;
27489;SDS011;14925;51.026;13.752;2023-04-03T05:43:02;9.50;;;3.08;;
27489;SDS011;14925;51.026;13.752;2023-04-03T05:45:28;11.75;;;3.47;;
27489;SDS011;14925;51.026;13.752;2023-04-03T05:47:53;11.18;;;2.97;;
27489;SDS011;14925;51.026;13.752;2023-04-03T05:50:19;8.93;;;3.20;;
27489;SDS011;14925;51.026;13.752;2023-04-03T05:52:45;13.95;;;3.47;;
27489;SDS011;14925;51.026;13.752;2023-04-03T05:55:12;15.18;;;3.53;;
27489;SDS011;14925;51.026;13.752;2023-04-03T05:57:37;15.77;;;3.38;;
27489;SDS011;14925;51.026;13.752;2023-04-03T06:00:08;11.48;;;3.38;;
27489;SDS011;14925;51.026;13.752;2023-04-03T06:02:37;10.20;;;3.10;;
27489;SDS011;14925;51.026;13.752;2023-04-03T06:05:03;12.43;;;3.28;;
27489;SDS011;14925;51.026;13.752;2023-04-03T06:07:29;12.73;;;3.53;;
27489;SDS011;14925;51.026;13.752;2023-04-03T06:09:54;15.68;;;3.50;;
27489;SDS011;14925;51.026;13.752;2023-04-03T06:12:21;11.77;;;3.47;;
27489;SDS011;14925;51.026;13.752;2023-04-03T06:14:47;12.45;;;3.15;;
27489;SDS011;14925;51.026;13.752;2023-04-03T06:17:16;16.25;;;3.40;;
27489;SDS011;14925;51.026;13.752;2023-04-03T06:19:43;15.40;;;3.20;;
27489;SDS011;14925;51.026;13.752;2023-04-03T06:22:08;12.80;;;3.17;;
27489;SDS011;14925;51.026;13.752;2023-04-03T06:24:34;12.73;;;3.10;;
27489;SDS011;14925;51.026;13.752;2023-04-03T06:27:00;10.52;;;3.00;;
27489;SDS011;14925;51.026;13.752;2023-04-03T06:29:25;11.60;;;3.25;;
27489;SDS011;14925;51.026;13.752;2023-04-03T06:31:51;13.10;;;3.45;;
27489;SDS011;14925;51.026;13.752;2023-04-03T06:34:17;11.35;;;2.83;;
27489;SDS011;14925;51.026;13.752;2023-04-03T06:36:43;14.15;;;3.20;;
27489;SDS011;14925;51.026;13.752;2023-04-03T06:39:13;8.40;;;2.90;;
27489;SDS011;14925;51.026;13.752;2023-04-03T06:41:40;13.00;;;3.60;;
27489;SDS011;14925;51.026;13.752;2023-04-03T06:44:06;10.68;;;2.80;;
27489;SDS011;14925;51.026;13.752;2023-04-03T06:46:35;11.98;;;3.50;;
27489;SDS011;14925;51.026;13.752;2023-04-03T06:49:02;12.20;;;3.35;;
27489;SDS011;14925;51.026;13.752;2023-04-03T06:51:28;13.95;;;2.92;;
27489;SDS011;14925;51.026;13.752;2023-04-03T06:53:57;8.27;;;2.88;;
27489;SDS011;14925;51.026;13.752;2023-04-03T06:56:23;12.70;;;3.13;;
27489;SDS011;14925;51.026;13.752;2023-04-03T06:58:48;16.60;;;3.58;;
27489;SDS011;14925;51.026;13.752;2023-04-03T07:01:15;10.60;;;2.90;;
27489;SDS011;14925;51.026;13.752;2023-04-03T07:03:41;15.52;;;3.25;;
27489;SDS011;14925;51.026;13.752;2023-04-03T07:06:07;13.95;;;3.00;;
27489;SDS011;14925;51.026;13.752;2023-04-03T07:08:34;9.98;;;3.08;;
27489;SDS011;14925;51.026;13.752;2023-04-03T07:11:00;12.13;;;3.40;;
27489;SDS011;14925;51.026;13.752;2023-04-03T07:13:25;9.20;;;2.97;;
27489;SDS011;14925;51.026;13.752;2023-04-03T07:15:51;12.25;;;2.88;;
27489;SDS011;14925;51.026;13.752;2023-04-03T07:18:17;16.90;;;3.83;;
27489;SDS011;14925;51.026;13.752;2023-04-03T07:20:43;8.88;;;2.97;;
27489;SDS011;14925;51.026;13.752;2023-04-03T07:23:09;9.45;;;2.88;;
27489;SDS011;14925;51.026;13.752;2023-04-03T07:25:42;7.25;;;2.65;;
27489;SDS011;14925;51.026;13.752;2023-04-03T07:28:09;10.38;;;3.00;;
27489;SDS011;14925;51.026;13.752;2023-04-03T07:30:34;15.55;;;3.17;;
27489;SDS011;14925;51.026;13.752;2023-04-03T07:33:00;11.57;;;2.40;;
27489;SDS011;14925;51.026;13.752;2023-04-03T07:35:25;9.45;;;2.83;;
27489;SDS011;14925;51.026;13.752;2023-04-03T07:37:51;14.52;;;2.95;;
27489;SDS011;14925;51.026;13.752;2023-04-03T07:40:16;11.07;;;2.97;;
27489;SDS011;14925;51.026;13.752;2023-04-03T07:42:42;10.25;;;2.83;;
27489;SDS011;14925;51.026;13.752;2023-04-03T07:45:07;10.45;;;2.53;;
27489;SDS011;14925;51.026;13.752;2023-04-03T07:47:33;7.05;;;2.50;;
27489;SDS011;14925;51.026;13.752;2023-04-03T07:49:58;10.05;;;3.03;;
27489;SDS011;14925;51.026;13.752;2023-04-03T07:52:24;11.02;;;2.83;;
27489;SDS011;14925;51.026;13.752;2023-04-03T07:54:50;8.82;;;2.55;;
27489;SDS011;14925;51.026;13.752;2023-04-03T07:57:15;8.52;;;2.70;;
27489;SDS011;14925;51.026;13.752;2023-04-03T07:59:41;13.98;;;3.35;;
27489;SDS011;14925;51.026;13.752;2023-04-03T08:02:11;11.52;;;3.00;;
27489;SDS011;14925;51.026;13.752;2023-04-03T08:04:37;11.90;;;2.42;;
27489;SDS011;14925;51.026;13.752;2023-04-03T08:07:02;8.98;;;2.75;;
27489;SDS011;14925;51.026;13.752;2023-04-03T08:09:28;15.45;;;3.08;;
27489;SDS011;14925;51.026;13.752;2023-04-03T08:11:56;10.10;;;2.50;;
27489;SDS011;14925;51.026;13.752;2023-04-03T08:14:22;8.98;;;2.45;;
27489;SDS011;14925;51.026;13.752;2023-04-03T08:16:48;8.80;;;2.22;;
27489;SDS011;14925;51.026;13.752;2023-04-03T08:19:14;7.30;;;2.63;;
27489;SDS011;14925;51.026;13.752;2023-04-03T08:21:41;13.00;;;2.80;;
27489;SDS011;14925;51.026;13.752;2023-04-03T08:24:07;9.55;;;2.97;;
27489;SDS011;14925;51.026;13.752;2023-04-03T08:26:33;8.68;;;3.00;;
27489;SDS011;14925;51.026;13.752;2023-04-03T08:28:59;12.13;;;2.70;;
27489;SDS011;14925;51.026;13.752;2023-04-03T08:31:24;12.95;;;2.75;;
27489;SDS011;14925;51.026;13.752;2023-04-03T08:33:50;12.43;;;2.92;;
27489;SDS011;14925;51.026;13.752;2023-04-03T08:36:16;10.48;;;2.72;;
27489;SDS011;14925;51.026;13.752;2023-04-03T08:38:47;11.85;;;2.63;;
27489;SDS011;14925;51.026;13.752;2023-04-03T08:41:20;12.00;;;2.67;;
27489;SDS011;14925;51.026;13.752;2023-04-03T08:52:01;11.00;;;2.60;;
27489;SDS011;14925;51.026;13.752;2023-04-03T08:54:30;6.40;;;2.08;;
27489;SDS011;14925;51.026;13.752;2023-04-03T08:57:03;8.75;;;2.15;;
27489;SDS011;14925;51.026;13.752;2023-04-03T08:59:32;8.13;;;2.30;;
27489;SDS011;14925;51.026;13.752;2023-04-03T09:02:00;8.40;;;2.40;;
27489;SDS011;14925;51.026;13.752;2023-04-03T09:04:29;11.82;;;2.67;;
27489;SDS011;14925;51.026;13.752;2023-04-03T09:06:58;11.88;;;2.78;;
27489;SDS011;14925;51.026;13.752;2023-04-03T09:09:40;11.82;;;2.53;;
27489;SDS011;14925;51.026;13.752;2023-04-03T09:14:39;9.48;;;2.60;;
27489;SDS011;14925;51.026;13.752;2023-04-03T09:20:05;11.73;;;2.00;;
27489;SDS011;14925;51.026;13.752;2023-04-03T09:22:46;7.28;;;2.35;;
27489;SDS011;14925;51.026;13.752;2023-04-03T09:25:15;9.77;;;2.33;;
27489;SDS011;14925;51.026;13.752;2023-04-03T09:27:46;12.93;;;2.85;;
27489;SDS011;14925;51.026;13.752;2023-04-03T09:30:15;4.93;;;1.90;;
27489;SDS011;14925;51.026;13.752;2023-04-03T09:32:50;7.82;;;2.20;;
27489;SDS011;14925;51.026;13.752;2023-04-03T09:35:27;9.48;;;2.13;;
27489;SDS011;14925;51.026;13.752;2023-04-03T09:37:59;11.27;;;2.33;;
27489;SDS011;14925;51.026;13.752;2023-04-03T09:42:54;7.82;;;1.85;;
27489;SDS011;14925;51.026;13.752;2023-04-03T09:45:26;7.97;;;1.90;;
27489;SDS011;14925;51.026;13.752;2023-04-03T09:48:26;9.60;;;2.03;;
27489;SDS011;14925;51.026;13.752;2023-04-03T09:53:34;9.50;;;1.70;;
27489;SDS011;14925;51.026;13.752;2023-04-03T09:56:05;9.02;;;1.95;;
27489;SDS011;14925;51.026;13.752;2023-04-03T09:58:44;8.20;;;1.70;;
27489;SDS011;14925;51.026;13.752;2023-04-03T10:01:31;6.88;;;2.03;;
27489;SDS011;14925;51.026;13.752;2023-04-03T10:06:41;8.70;;;1.98;;
27489;SDS011;14925;51.026;13.752;2023-04-03T10:12:09;8.73;;;1.75;;
27489;SDS011;14925;51.026;13.752;2023-04-03T10:14:41;6.18;;;1.55;;
27489;SDS011;14925;51.026;13.752;2023-04-03T10:22:56;5.50;;;1.60;;
27489;SDS011;14925;51.026;13.752;2023-04-03T10:25:43;10.13;;;1.95;;
27489;SDS011;14925;51.026;13.752;2023-04-03T10:28:18;9.50;;;1.75;;
27489;SDS011;14925;51.026;13.752;2023-04-03T10:30:58;7.40;;;1.90;;
27489;SDS011;14925;51.026;13.752;2023-04-03T10:33:39;4.93;;;1.70;;
27489;SDS011;14925;51.026;13.752;2023-04-03T10:36:49;8.30;;;2.08;;
27489;SDS011;14925;51.026;13.752;2023-04-03T10:47:34;5.75;;;1.50;;
27489;SDS011;14925;51.026;13.752;2023-04-03T10:52:40;6.63;;;1.30;;
27489;SDS011;14925;51.026;13.752;2023-04-03T10:57:38;6.85;;;1.42;;
27489;SDS011;14925;51.026;13.752;2023-04-03T11:00:06;6.28;;;1.27;;
27489;SDS011;14925;51.026;13.752;2023-04-03T11:02:41;8.07;;;1.20;;
27489;SDS011;14925;51.026;13.752;2023-04-03T11:07:39;3.63;;;1.48;;
27489;SDS011;14925;51.026;13.752;2023-04-03T11:12:49;6.95;;;1.33;;
27489;SDS011;14925;51.026;13.752;2023-04-03T11:15:19;4.57;;;1.17;;
27489;SDS011;14925;51.026;13.752;2023-04-03T11:17:48;4.25;;;1.10;;
27489;SDS011;14925;51.026;13.752;2023-04-03T11:20:20;5.93;;;1.50;;
27489;SDS011;14925;51.026;13.752;2023-04-03T11:22:53;4.93;;;1.10;;
27489;SDS011;14925;51.026;13.752;2023-04-03T11:25:24;6.60;;;1.42;;
27489;SDS011;14925;51.026;13.752;2023-04-03T11:33:40;5.57;;;1.38;;
27489;SDS011;14925;51.026;13.752;2023-04-03T11:36:29;6.18;;;1.27;;
27489;SDS011;14925;51.026;13.752;2023-04-03T11:38:55;7.20;;;1.67;;
27489;SDS011;14925;51.026;13.752;2023-04-03T11:41:32;7.18;;;1.95;;
27489;SDS011;14925;51.026;13.752;2023-04-03T12:13:34;6.80;;;1.50;;
27489;SDS011;14925;51.026;13.752;2023-04-03T12:16:00;6.82;;;1.75;;
27489;SDS011;14925;51.026;13.752;2023-04-03T12:21:08;5.35;;;1.67;;
27489;SDS011;14925;51.026;13.752;2023-04-03T12:23:35;7.68;;;1.73;;
27489;SDS011;14925;51.026;13.752;2023-04-03T12:26:20;5.15;;;1.13;;
27489;SDS011;14925;51.026;13.752;2023-04-03T12:28:47;4.82;;;1.50;;
27489;SDS011;14925;51.026;13.752;2023-04-03T12:31:13;2.80;;;1.20;;
27489;SDS011;14925;51.026;13.752;2023-04-03T12:39:19;3.63;;;1.85;;
27489;SDS011;14925;51.026;13.752;2023-04-03T12:44:18;5.75;;;1.27;;
27489;SDS011;14925;51.026;13.752;2023-04-03T12:46:46;5.32;;;1.45;;
27489;SDS011;14925;51.026;13.752;2023-04-03T12:49:58;6.82;;;1.40;;
27489;SDS011;14925;51.026;13.752;2023-04-03T12:54:54;7.40;;;1.45;;
27489;SDS011;14925;51.026;13.752;2023-04-03T12:57:21;3.60;;;1.35;;
27489;SDS011;14925;51.026;13.752;2023-04-03T12:59:49;3.95;;;1.48;;
27489;SDS011;14925;51.026;13.752;2023-04-03T13:04:53;6.80;;;1.80;;
27489;SDS011;14925;51.026;13.752;2023-04-03T13:07:38;5.28;;;1.45;;
27489;SDS011;14925;51.026;13.752;2023-04-03T13:12:34;7.00;;;1.55;;
27489;SDS011;14925;51.026;13.752;2023-04-03T13:15:11;5.78;;;1.30;;
27489;SDS011;14925;51.026;13.752;2023-04-03T13:17:38;5.22;;;1.60;;
27489;SDS011;14925;51.026;13.752;2023-04-03T13:20:11;6.38;;;1.35;;
27489;SDS011;14925;51.026;13.752;2023-04-03T13:22:40;4.53;;;1.50;;
27489;SDS011;14925;51.026;13.752;2023-04-03T13:25:15;4.90;;;1.60;;
27489;SDS011;14925;51.026;13.752;2023-04-03T13:27:45;4.35;;;1.45;;
27489;SDS011;14925;51.026;13.752;2023-04-03T13:30:22;5.15;;;1.65;;
27489;SDS011;14925;51.026;13.752;2023-04-03T13:32:50;3.83;;;1.48;;
27489;SDS011;14925;51.026;13.752;2023-04-03T13:35:35;8.10;;;1.50;;
27489;SDS011;14925;51.026;13.752;2023-04-03T13:38:07;4.53;;;1.40;;
27489;SDS011;14925;51.026;13.752;2023-04-03T13:40:48;5.93;;;1.77;;
27489;SDS011;14925;51.026;13.752;2023-04-03T13:43:19;5.40;;;1.48;;
27489;SDS011;14925;51.026;13.752;2023-04-03T13:45:54;4.70;;;1.42;;
27489;SDS011;14925;51.026;13.752;2023-04-03T13:48:21;6.03;;;1.65;;
27489;SDS011;14925;51.026;13.752;2023-04-03T13:50:52;7.75;;;1.80;;
27489;SDS011;14925;51.026;13.752;2023-04-03T13:53:20;6.90;;;1.65;;
27489;SDS011;14925;51.026;13.752;2023-04-03T13:55:53;7.13;;;2.03;;
27489;SDS011;14925;51.026;13.752;2023-04-03T13:58:23;4.68;;;1.27;;
27489;SDS011;14925;51.026;13.752;2023-04-03T14:00:51;3.47;;;1.30;;
27489;SDS011;14925;51.026;13.752;2023-04-03T14:03:23;4.38;;;1.30;;
27489;SDS011;14925;51.026;13.752;2023-04-03T14:06:18;6.28;;;1.60;;
27489;SDS011;14925;51.026;13.752;2023-04-03T14:08:44;5.43;;;1.52;;
27489;SDS011;14925;51.026;13.752;2023-04-03T14:11:15;7.95;;;2.10;;
27489;SDS011;14925;51.026;13.752;2023-04-03T14:13:42;7.43;;;1.67;;
27489;SDS011;14925;51.026;13.752;2023-04-03T14:16:11;3.65;;;1.60;;
27489;SDS011;14925;51.026;13.752;2023-04-03T14:18:38;3.88;;;1.40;;
27489;SDS011;14925;51.026;13.752;2023-04-03T14:21:04;5.97;;;1.42;;
27489;SDS011;14925;51.026;13.752;2023-04-03T14:23:29;7.25;;;1.50;;
27489;SDS011;14925;51.026;13.752;2023-04-03T14:25:55;4.53;;;1.63;;
27489;SDS011;14925;51.026;13.752;2023-04-03T14:28:22;5.75;;;1.40;;
27489;SDS011;14925;51.026;13.752;2023-04-03T14:30:48;4.43;;;1.55;;
27489;SDS011;14925;51.026;13.752;2023-04-03T14:33:16;5.22;;;1.48;;
27489;SDS011;14925;51.026;13.752;2023-04-03T14:35:43;3.60;;;1.35;;
27489;SDS011;14925;51.026;13.752;2023-04-03T14:38:29;5.97;;;1.58;;
27489;SDS011;14925;51.026;13.752;2023-04-03T14:40:56;4.00;;;1.40;;
27489;SDS011;14925;51.026;13.752;2023-04-03T14:43:21;5.75;;;1.52;;
27489;SDS011;14925;51.026;13.752;2023-04-03T14:45:47;4.90;;;1.40;;
27489;SDS011;14925;51.026;13.752;2023-04-03T14:48:21;5.50;;;1.70;;
27489;SDS011;14925;51.026;13.752;2023-04-03T14:50:48;6.00;;;2.63;;
27489;SDS011;14925;51.026;13.752;2023-04-03T14:53:15;7.90;;;1.95;;
27489;SDS011;14925;51.026;13.752;2023-04-03T14:55:45;4.25;;;1.77;;
27489;SDS011;14925;51.026;13.752;2023-04-03T14:58:12;7.80;;;1.52;;
27489;SDS011;14925;51.026;13.752;2023-04-03T15:00:39;10.20;;;1.65;;
27489;SDS011;14925;51.026;13.752;2023-04-03T15:03:11;4.70;;;1.80;;
27489;SDS011;14925;51.026;13.752;2023-04-03T15:05:39;3.20;;;1.40;;
27489;SDS011;14925;51.026;13.752;2023-04-03T15:08:13;5.03;;;1.35;;
27489;SDS011;14925;51.026;13.752;2023-04-03T15:10:44;5.47;;;1.27;;
27489;SDS011;14925;51.026;13.752;2023-04-03T15:13:10;5.20;;;1.40;;
27489;SDS011;14925;51.026;13.752;2023-04-03T15:15:37;5.53;;;1.40;;
27489;SDS011;14925;51.026;13.752;2023-04-03T15:18:02;5.65;;;1.52;;
27489;SDS011;14925;51.026;13.752;2023-04-03T15:20:28;6.60;;;1.40;;
27489;SDS011;14925;51.026;13.752;2023-04-03T15:22:55;4.78;;;1.25;;
27489;SDS011;14925;51.026;13.752;2023-04-03T15:25:26;5.18;;;1.65;;
27489;SDS011;14925;51.026;13.752;2023-04-03T15:27:52;4.97;;;1.40;;
27489;SDS011;14925;51.026;13.752;2023-04-03T15:30:19;5.30;;;1.30;;
27489;SDS011;14925;51.026;13.752;2023-04-03T15:32:44;7.05;;;1.75;;
27489;SDS011;14925;51.026;13.752;2023-04-03T15:35:10;2.17;;;1.08;;
27489;SDS011;14925;51.026;13.752;2023-04-03T15:37:36;4.70;;;1.70;;
27489;SDS011;14925;51.026;13.752;2023-04-03T15:40:02;5.47;;;1.30;;
27489;SDS011;14925;51.026;13.752;2023-04-03T15:42:29;5.55;;;1.63;;
27489;SDS011;14925;51.026;13.752;2023-04-03T15:44:55;4.00;;;1.40;;
27489;SDS011;14925;51.026;13.752;2023-04-03T15:47:20;5.57;;;1.23;;
27489;SDS011;14925;51.026;13.752;2023-04-03T15:49:45;6.22;;;1.60;;
27489;SDS011;14925;51.026;13.752;2023-04-03T15:52:11;3.83;;;1.30;;
27489;SDS011;14925;51.026;13.752;2023-04-03T15:54:36;5.63;;;1.63;;
27489;SDS011;14925;51.026;13.752;2023-04-03T15:57:02;4.05;;;1.60;;
27489;SDS011;14925;51.026;13.752;2023-04-03T15:59:27;3.10;;;1.15;;
27489;SDS011;14925;51.026;13.752;2023-04-03T16:01:55;3.35;;;1.38;;
27489;SDS011;14925;51.026;13.752;2023-04-03T16:04:23;4.40;;;1.58;;
27489;SDS011;14925;51.026;13.752;2023-04-03T16:06:48;8.20;;;1.52;;
27489;SDS011;14925;51.026;13.752;2023-04-03T16:09:14;4.80;;;1.40;;
27489;SDS011;14925;51.026;13.752;2023-04-03T16:11:39;6.03;;;1.60;;
27489;SDS011;14925;51.026;13.752;2023-04-03T16:14:05;3.83;;;1.27;;
27489;SDS011;14925;51.026;13.752;2023-04-03T16:16:31;5.03;;;1.30;;
27489;SDS011;14925;51.026;13.752;2023-04-03T16:18:57;3.55;;;1.33;;
27489;SDS011;14925;51.026;13.752;2023-04-03T16:21:22;6.38;;;1.40;;
27489;SDS011;14925;51.026;13.752;2023-04-03T16:23:48;5.05;;;1.35;;